sensor_id;sensor_type;location;lat;lon;timestamp;pressure;altitude;pressure_sealevel;temperature;humidity
18795;BME280;29610;49.022;12.114;2022-10-31T00:01:38;98226.63;;;10.12;100.00
18795;BME280;29610;49.022;12.114;2022-10-31T00:04:07;98227.91;;;10.15;100.00
18795;BME280;29610;49.022;12.114;2022-10-31T00:06:35;98223.78;;;10.04;100.00
18795;BME280;29610;49.022;12.114;2022-10-31T00:09:04;98229.63;;;9.97;100.00
18795;BME280;29610;49.022;12.114;2022-10-31T00:11:33;98224.81;;;9.81;100.00
18795;BME280;29610;49.022;12.114;2022-10-31T00:14:03;98221.50;;;9.70;100.00
18795;BME280;29610;49.022;12.114;2022-10-31T00:16:32;98218.59;;;9.80;100.00
18795;BME280;29610;49.022;12.114;2022-10-31T00:19:03;98219.09;;;9.69;100.00
18795;BME280;29610;49.022;12.114;2022-10-31T00:21:34;98215.75;;;9.72;100.00
18795;BME280;29610;49.022;12.114;2022-10-31T00:24:04;98221.03;;;9.41;100.00
18795;BME280;29610;49.022;12.114;2022-10-31T00:26:32;98222.22;;;9.49;100.00
18795;BME280;29610;49.022;12.114;2022-10-31T00:29:02;98228.16;;;9.51;100.00
18795;BME280;29610;49.022;12.114;2022-10-31T00:31:31;98226.75;;;9.53;100.00
18795;BME280;29610;49.022;12.114;2022-10-31T00:34:00;98231.97;;;9.63;100.00
18795;BME280;29610;49.022;12.114;2022-10-31T00:36:30;98228.66;;;9.66;100.00
18795;BME280;29610;49.022;12.114;2022-10-31T00:38:59;98226.03;;;9.75;100.00
18795;BME280;29610;49.022;12.114;2022-10-31T00:41:28;98224.72;;;9.72;100.00
18795;BME280;29610;49.022;12.114;2022-10-31T00:43:57;98219.50;;;9.62;100.00
18795;BME280;29610;49.022;12.114;2022-10-31T00:46:27;98224.13;;;9.62;100.00
18795;BME280;29610;49.022;12.114;2022-10-31T00:48:55;98225.22;;;9.74;100.00
18795;BME280;29610;49.022;12.114;2022-10-31T00:51:24;98224.00;;;9.80;100.00
18795;BME280;29610;49.022;12.114;2022-10-31T00:53:52;98224.13;;;9.62;100.00
18795;BME280;29610;49.022;12.114;2022-10-31T00:56:21;98221.53;;;9.57;100.00
18795;BME280;29610;49.022;12.114;2022-10-31T00:58:50;98221.63;;;9.52;100.00
18795;BME280;29610;49.022;12.114;2022-10-31T01:01:20;98226.44;;;9.55;100.00
18795;BME280;29610;49.022;12.114;2022-10-31T01:03:51;98223.31;;;9.48;100.00
18795;BME280;29610;49.022;12.114;2022-10-31T01:06:19;98230.97;;;9.46;100.00
18795;BME280;29610;49.022;12.114;2022-10-31T01:08:48;98227.03;;;9.38;100.00
18795;BME280;29610;49.022;12.114;2022-10-31T01:11:21;98231.16;;;9.36;100.00
18795;BME280;29610;49.022;12.114;2022-10-31T01:13:52;98224.53;;;9.28;100.00
18795;BME280;29610;49.022;12.114;2022-10-31T01:16:25;98222.19;;;9.22;100.00
18795;BME280;29610;49.022;12.114;2022-10-31T01:18:57;98220.78;;;9.11;100.00
18795;BME280;29610;49.022;12.114;2022-10-31T01:21:29;98219.97;;;9.10;100.00
18795;BME280;29610;49.022;12.114;2022-10-31T01:23:59;98221.56;;;9.11;100.00
18795;BME280;29610;49.022;12.114;2022-10-31T01:26:31;98222.00;;;9.18;100.00
18795;BME280;29610;49.022;12.114;2022-10-31T01:29:04;98234.47;;;9.33;100.00
18795;BME280;29610;49.022;12.114;2022-10-31T01:31:37;98228.81;;;9.29;100.00
18795;BME280;29610;49.022;12.114;2022-10-31T01:34:11;98226.94;;;9.30;100.00
18795;BME280;29610;49.022;12.114;2022-10-31T01:36:42;98225.31;;;9.29;100.00
18795;BME280;29610;49.022;12.114;2022-10-31T01:39:14;98227.53;;;9.27;100.00
18795;BME280;29610;49.022;12.114;2022-10-31T01:41:46;98226.94;;;9.30;100.00
18795;BME280;29610;49.022;12.114;2022-10-31T01:44:53;98232.34;;;9.30;100.00
18795;BME280;29610;49.022;12.114;2022-10-31T01:47:41;98229.03;;;9.33;100.00
18795;BME280;29610;49.022;12.114;2022-10-31T01:50:25;98221.72;;;9.33;100.00
18795;BME280;29610;49.022;12.114;2022-10-31T01:52:55;98222.50;;;9.34;100.00
18795;BME280;29610;49.022;12.114;2022-10-31T01:55:28;98223.81;;;9.36;100.00
18795;BME280;29610;49.022;12.114;2022-10-31T01:58:03;98224.94;;;9.49;100.00
18795;BME280;29610;49.022;12.114;2022-10-31T02:00:33;98221.81;;;9.42;100.00
18795;BME280;29610;49.022;12.114;2022-10-31T02:03:01;98219.50;;;9.49;100.00
18795;BME280;29610;49.022;12.114;2022-10-31T02:05:33;98220.31;;;9.36;100.00
18795;BME280;29610;49.022;12.114;2022-10-31T02:08:08;98219.41;;;9.40;100.00
18795;BME280;29610;49.022;12.114;2022-10-31T02:10:42;98224.53;;;9.28;100.00
18795;BME280;29610;49.022;12.114;2022-10-31T02:13:12;98225.22;;;9.34;100.00
18795;BME280;29610;49.022;12.114;2022-10-31T02:15:52;98225.03;;;9.44;100.00
18795;BME280;29610;49.022;12.114;2022-10-31T02:18:22;98234.16;;;9.48;100.00
18795;BME280;29610;49.022;12.114;2022-10-31T02:21:04;98229.16;;;9.41;100.00
18795;BME280;29610;49.022;12.114;2022-10-31T02:24:23;98228.94;;;9.38;100.00
18795;BME280;29610;49.022;12.114;2022-10-31T02:27:09;98228.53;;;9.17;100.00
18795;BME280;29610;49.022;12.114;2022-10-31T02:30:05;98231.94;;;9.23;100.00
18795;BME280;29610;49.022;12.114;2022-10-31T02:32:54;98225.91;;;9.26;100.00
18795;BME280;29610;49.022;12.114;2022-10-31T02:35:44;98221.72;;;9.33;100.00
18795;BME280;29610;49.022;12.114;2022-10-31T02:38:29;98219.69;;;9.39;100.00
18795;BME280;29610;49.022;12.114;2022-10-31T02:41:09;98217.28;;;9.37;100.00
18795;BME280;29610;49.022;12.114;2022-10-31T02:44:02;98213.47;;;9.25;100.00
18795;BME280;29610;49.022;12.114;2022-10-31T02:46:39;98229.44;;;9.13;100.00
18795;BME280;29610;49.022;12.114;2022-10-31T02:49:23;98230.81;;;9.10;100.00
18795;BME280;29610;49.022;12.114;2022-10-31T02:51:55;98235.63;;;9.00;100.00
18795;BME280;29610;49.022;12.114;2022-10-31T02:54:26;98232.63;;;9.15;100.00
18795;BME280;29610;49.022;12.114;2022-10-31T02:57:01;98233.75;;;9.14;100.00
18795;BME280;29610;49.022;12.114;2022-10-31T02:59:34;98236.44;;;9.14;100.00
18795;BME280;29610;49.022;12.114;2022-10-31T03:02:50;98236.78;;;8.93;100.00
18795;BME280;29610;49.022;12.114;2022-10-31T03:05:50;98232.19;;;8.94;100.00
18795;BME280;29610;49.022;12.114;2022-10-31T03:08:32;98239.63;;;9.02;100.00
18795;BME280;29610;49.022;12.114;2022-10-31T03:11:07;98231.78;;;9.01;100.00
18795;BME280;29610;49.022;12.114;2022-10-31T03:13:46;98233.69;;;9.00;100.00
18795;BME280;29610;49.022;12.114;2022-10-31T03:16:21;98237.50;;;8.99;100.00
18795;BME280;29610;49.022;12.114;2022-10-31T03:18:57;98226.38;;;9.01;100.00
18795;BME280;29610;49.022;12.114;2022-10-31T03:21:35;98234.41;;;8.60;100.00
18795;BME280;29610;49.022;12.114;2022-10-31T03:24:08;98236.88;;;8.56;100.00
18795;BME280;29610;49.022;12.114;2022-10-31T03:26:44;98241.41;;;8.61;100.00
18795;BME280;29610;49.022;12.114;2022-10-31T03:29:19;98247.47;;;8.71;100.00
18795;BME280;29610;49.022;12.114;2022-10-31T03:31:54;98248.50;;;8.75;100.00
18795;BME280;29610;49.022;12.114;2022-10-31T03:34:25;98251.22;;;8.75;100.00
18795;BME280;29610;49.022;12.114;2022-10-31T03:37:04;98246.09;;;8.74;100.00
18795;BME280;29610;49.022;12.114;2022-10-31T03:39:38;98253.69;;;8.72;100.00
18795;BME280;29610;49.022;12.114;2022-10-31T03:42:12;98246.53;;;8.62;100.00
18795;BME280;29610;49.022;12.114;2022-10-31T03:44:51;98254.81;;;8.52;100.00
18795;BME280;29610;49.022;12.114;2022-10-31T03:47:22;98260.81;;;8.49;100.00
18795;BME280;29610;49.022;12.114;2022-10-31T03:49:51;98269.03;;;8.63;100.00
18795;BME280;29610;49.022;12.114;2022-10-31T03:52:28;98261.09;;;8.66;100.00
18795;BME280;29610;49.022;12.114;2022-10-31T03:55:09;98262.13;;;8.70;100.00
18795;BME280;29610;49.022;12.114;2022-10-31T03:57:47;98267.38;;;8.80;100.00
18795;BME280;29610;49.022;12.114;2022-10-31T04:00:17;98270.19;;;8.75;100.00
18795;BME280;29610;49.022;12.114;2022-10-31T04:02:54;98266.81;;;8.65;100.00
18795;BME280;29610;49.022;12.114;2022-10-31T04:05:29;98272.09;;;8.56;100.00
18795;BME280;29610;49.022;12.114;2022-10-31T04:08:08;98279.34;;;8.24;100.00
18795;BME280;29610;49.022;12.114;2022-10-31T04:10:41;98276.56;;;8.47;100.00
18795;BME280;29610;49.022;12.114;2022-10-31T04:13:17;98277.94;;;8.63;100.00
18795;BME280;29610;49.022;12.114;2022-10-31T04:15:57;98275.31;;;8.58;100.00
18795;BME280;29610;49.022;12.114;2022-10-31T04:18:26;98269.16;;;8.53;100.00
18795;BME280;29610;49.022;12.114;2022-10-31T04:21:07;98263.47;;;8.36;100.00
18795;BME280;29610;49.022;12.114;2022-10-31T04:23:38;98273.91;;;8.24;100.00
18795;BME280;29610;49.022;12.114;2022-10-31T04:26:14;98265.06;;;8.37;100.00
18795;BME280;29610;49.022;12.114;2022-10-31T04:28:43;98255.94;;;8.33;100.00
18795;BME280;29610;49.022;12.114;2022-10-31T04:31:13;98257.91;;;8.27;100.00
18795;BME280;29610;49.022;12.114;2022-10-31T04:33:43;98256.72;;;8.33;100.00
18795;BME280;29610;49.022;12.114;2022-10-31T04:36:12;98256.84;;;8.23;100.00
18795;BME280;29610;49.022;12.114;2022-10-31T04:38:43;98259.22;;;8.48;100.00
18795;BME280;29610;49.022;12.114;2022-10-31T04:41:25;98253.28;;;8.46;100.00
18795;BME280;29610;49.022;12.114;2022-10-31T04:44:07;98257.22;;;8.54;100.00
18795;BME280;29610;49.022;12.114;2022-10-31T04:46:36;98262.56;;;8.59;100.00
18795;BME280;29610;49.022;12.114;2022-10-31T04:49:04;98259.44;;;8.52;100.00
18795;BME280;29610;49.022;12.114;2022-10-31T04:51:35;98259.78;;;8.64;100.00
18795;BME280;29610;49.022;12.114;2022-10-31T04:54:05;98256.88;;;8.42;100.00
18795;BME280;29610;49.022;12.114;2022-10-31T04:56:34;98262.41;;;8.69;100.00
18795;BME280;29610;49.022;12.114;2022-10-31T04:59:10;98255.88;;;8.70;100.00
18795;BME280;29610;49.022;12.114;2022-10-31T05:01:46;98261.00;;;8.90;100.00
18795;BME280;29610;49.022;12.114;2022-10-31T05:04:18;98255.28;;;8.92;100.00
18795;BME280;29610;49.022;12.114;2022-10-31T05:06:47;98258.00;;;9.05;100.00
18795;BME280;29610;49.022;12.114;2022-10-31T05:09:17;98253.31;;;9.11;100.00
18795;BME280;29610;49.022;12.114;2022-10-31T05:11:46;98263.72;;;8.90;100.00
18795;BME280;29610;49.022;12.114;2022-10-31T05:14:38;98257.00;;;9.01;100.00
18795;BME280;29610;49.022;12.114;2022-10-31T05:17:28;98261.63;;;9.01;100.00
18795;BME280;29610;49.022;12.114;2022-10-31T05:20:26;98248.75;;;8.93;100.00
18795;BME280;29610;49.022;12.114;2022-10-31T05:23:24;98252.94;;;8.85;100.00
18795;BME280;29610;49.022;12.114;2022-10-31T05:25:55;98242.81;;;8.90;100.00
18795;BME280;29610;49.022;12.114;2022-10-31T05:28:24;98244.44;;;8.92;100.00
18795;BME280;29610;49.022;12.114;2022-10-31T05:30:53;98249.97;;;9.00;100.00
18795;BME280;29610;49.022;12.114;2022-10-31T05:33:22;98253.63;;;9.09;100.00
18795;BME280;29610;49.022;12.114;2022-10-31T05:36:09;98244.38;;;9.10;100.00
18795;BME280;29610;49.022;12.114;2022-10-31T05:38:43;98240.41;;;8.89;100.00
18795;BME280;29610;49.022;12.114;2022-10-31T05:41:21;98246.31;;;8.77;100.00
18795;BME280;29610;49.022;12.114;2022-10-31T05:43:50;98249.19;;;8.81;100.00
18795;BME280;29610;49.022;12.114;2022-10-31T05:46:24;98247.63;;;8.93;100.00
18795;BME280;29610;49.022;12.114;2022-10-31T05:49:11;98247.75;;;8.88;100.00
18795;BME280;29610;49.022;12.114;2022-10-31T05:51:58;98254.31;;;8.82;100.00
18795;BME280;29610;49.022;12.114;2022-10-31T05:54:37;98249.34;;;8.89;100.00
18795;BME280;29610;49.022;12.114;2022-10-31T05:57:07;98257.94;;;8.78;100.00
18795;BME280;29610;49.022;12.114;2022-10-31T05:59:36;98259.34;;;8.75;100.00
18795;BME280;29610;49.022;12.114;2022-10-31T06:02:07;98253.25;;;8.83;100.00
18795;BME280;29610;49.022;12.114;2022-10-31T06:05:14;98254.13;;;8.79;100.00
18795;BME280;29610;49.022;12.114;2022-10-31T06:07:43;98262.66;;;8.86;100.00
18795;BME280;29610;49.022;12.114;2022-10-31T06:10:12;98258.38;;;8.99;100.00
18795;BME280;29610;49.022;12.114;2022-10-31T06:12:42;98260.94;;;9.09;100.00
18795;BME280;29610;49.022;12.114;2022-10-31T06:15:17;98269.38;;;9.21;100.00
18795;BME280;29610;49.022;12.114;2022-10-31T06:18:02;98269.13;;;9.22;100.00
18795;BME280;29610;49.022;12.114;2022-10-31T06:20:42;98272.13;;;9.34;100.00
18795;BME280;29610;49.022;12.114;2022-10-31T06:23:10;98268.00;;;9.37;100.00
18795;BME280;29610;49.022;12.114;2022-10-31T06:25:41;98277.47;;;9.53;100.00
18795;BME280;29610;49.022;12.114;2022-10-31T06:28:13;98269.38;;;9.66;100.00
18795;BME280;29610;49.022;12.114;2022-10-31T06:31:00;98277.50;;;9.66;100.00
18795;BME280;29610;49.022;12.114;2022-10-31T06:33:30;98272.06;;;9.66;100.00
18795;BME280;29610;49.022;12.114;2022-10-31T06:36:02;98274.78;;;9.80;100.00
18795;BME280;29610;49.022;12.114;2022-10-31T06:38:31;98272.38;;;9.92;100.00
18795;BME280;29610;49.022;12.114;2022-10-31T06:41:03;98278.00;;;9.95;100.00
18795;BME280;29610;49.022;12.114;2022-10-31T06:43:46;98273.47;;;10.04;100.00
18795;BME280;29610;49.022;12.114;2022-10-31T06:46:39;98280.81;;;10.17;100.00
18795;BME280;29610;49.022;12.114;2022-10-31T06:49:27;98288.47;;;10.29;100.00
18795;BME280;29610;49.022;12.114;2022-10-31T06:52:00;98292.25;;;10.42;100.00
18795;BME280;29610;49.022;12.114;2022-10-31T06:54:29;98288.19;;;10.53;100.00
18795;BME280;29610;49.022;12.114;2022-10-31T06:56:58;98290.00;;;10.57;100.00
18795;BME280;29610;49.022;12.114;2022-10-31T06:59:29;98285.13;;;10.68;100.00
18795;BME280;29610;49.022;12.114;2022-10-31T07:02:18;98287.03;;;10.67;100.00
18795;BME280;29610;49.022;12.114;2022-10-31T07:04:48;98293.66;;;10.75;100.00
18795;BME280;29610;49.022;12.114;2022-10-31T07:07:18;98297.31;;;10.92;100.00
18795;BME280;29610;49.022;12.114;2022-10-31T07:09:48;98295.22;;;10.89;100.00
18795;BME280;29610;49.022;12.114;2022-10-31T07:12:20;98293.78;;;10.92;100.00
18795;BME280;29610;49.022;12.114;2022-10-31T07:14:57;98295.44;;;11.01;100.00
18795;BME280;29610;49.022;12.114;2022-10-31T07:17:26;98301.19;;;11.00;100.00
18795;BME280;29610;49.022;12.114;2022-10-31T07:19:59;98298.25;;;11.10;100.00
18795;BME280;29610;49.022;12.114;2022-10-31T07:22:33;98303.47;;;11.28;100.00
18795;BME280;29610;49.022;12.114;2022-10-31T07:25:05;98293.59;;;11.32;100.00
18795;BME280;29610;49.022;12.114;2022-10-31T07:27:52;98300.50;;;11.38;100.00
18795;BME280;29610;49.022;12.114;2022-10-31T07:30:23;98298.59;;;11.39;100.00
18795;BME280;29610;49.022;12.114;2022-10-31T07:32:55;98295.38;;;11.37;100.00
18795;BME280;29610;49.022;12.114;2022-10-31T07:35:31;98294.50;;;11.50;100.00
18795;BME280;29610;49.022;12.114;2022-10-31T07:38:09;98293.72;;;11.58;100.00
18795;BME280;29610;49.022;12.114;2022-10-31T07:40:39;98297.38;;;11.75;100.00
18795;BME280;29610;49.022;12.114;2022-10-31T07:43:10;98299.66;;;11.60;100.00
18795;BME280;29610;49.022;12.114;2022-10-31T07:46:05;98295.09;;;11.69;100.00
18795;BME280;29610;49.022;12.114;2022-10-31T07:49:00;98292.25;;;11.82;100.00
18795;BME280;29610;49.022;12.114;2022-10-31T07:51:47;98285.25;;;11.90;100.00
18795;BME280;29610;49.022;12.114;2022-10-31T07:54:34;98294.84;;;11.88;100.00
18795;BME280;29610;49.022;12.114;2022-10-31T07:57:02;98288.00;;;11.99;100.00
18795;BME280;29610;49.022;12.114;2022-10-31T07:59:31;98282.56;;;12.07;100.00
18795;BME280;29610;49.022;12.114;2022-10-31T08:02:01;98281.50;;;12.25;100.00
18795;BME280;29610;49.022;12.114;2022-10-31T08:04:30;98282.94;;;12.31;100.00
18795;BME280;29610;49.022;12.114;2022-10-31T08:07:17;98280.88;;;12.37;100.00
18795;BME280;29610;49.022;12.114;2022-10-31T08:09:53;98274.03;;;12.00;100.00
18795;BME280;29610;49.022;12.114;2022-10-31T08:12:26;98280.34;;;12.18;100.00
18795;BME280;29610;49.022;12.114;2022-10-31T08:14:54;98279.84;;;12.07;100.00
18795;BME280;29610;49.022;12.114;2022-10-31T08:17:24;98277.31;;;12.11;100.00
18795;BME280;29610;49.022;12.114;2022-10-31T08:19:55;98274.75;;;12.23;100.00
18795;BME280;29610;49.022;12.114;2022-10-31T08:22:29;98273.16;;;12.22;100.00
18795;BME280;29610;49.022;12.114;2022-10-31T08:24:58;98264.50;;;12.37;100.00
18795;BME280;29610;49.022;12.114;2022-10-31T08:27:27;98262.59;;;12.54;100.00
18795;BME280;29610;49.022;12.114;2022-10-31T08:29:59;98252.34;;;12.77;100.00
18795;BME280;29610;49.022;12.114;2022-10-31T08:32:29;98254.25;;;12.85;100.00
18795;BME280;29610;49.022;12.114;2022-10-31T08:34:57;98248.50;;;12.95;100.00
18795;BME280;29610;49.022;12.114;2022-10-31T08:37:41;98247.38;;;13.13;100.00
18795;BME280;29610;49.022;12.114;2022-10-31T08:40:11;98237.84;;;13.27;100.00
18795;BME280;29610;49.022;12.114;2022-10-31T08:42:40;98232.59;;;12.88;100.00
18795;BME280;29610;49.022;12.114;2022-10-31T08:45:09;98236.41;;;13.21;100.00
18795;BME280;29610;49.022;12.114;2022-10-31T08:47:39;98228.78;;;12.81;100.00
18795;BME280;29610;49.022;12.114;2022-10-31T08:50:08;98231.94;;;12.91;100.00
18795;BME280;29610;49.022;12.114;2022-10-31T08:52:37;98236.41;;;13.21;100.00
18795;BME280;29610;49.022;12.114;2022-10-31T08:55:26;98234.56;;;13.51;100.00
18795;BME280;29610;49.022;12.114;2022-10-31T08:57:58;98230.63;;;13.69;100.00
18795;BME280;29610;49.022;12.114;2022-10-31T09:00:36;98225.44;;;13.85;100.00
18795;BME280;29610;49.022;12.114;2022-10-31T09:03:15;98224.69;;;13.96;100.00
18795;BME280;29610;49.022;12.114;2022-10-31T09:05:44;98225.91;;;14.07;100.00
18795;BME280;29610;49.022;12.114;2022-10-31T09:08:15;98225.47;;;14.05;100.00
18795;BME280;29610;49.022;12.114;2022-10-31T09:10:46;98221.56;;;14.15;100.00
18795;BME280;29610;49.022;12.114;2022-10-31T09:13:23;98224.91;;;14.41;100.00
18795;BME280;29610;49.022;12.114;2022-10-31T09:16:13;98223.66;;;14.38;100.00
18795;BME280;29610;49.022;12.114;2022-10-31T09:18:44;98221.78;;;14.30;100.00
18795;BME280;29610;49.022;12.114;2022-10-31T09:21:16;98221.94;;;14.54;100.00
18795;BME280;29610;49.022;12.114;2022-10-31T09:23:46;98219.44;;;14.61;100.00
18795;BME280;29610;49.022;12.114;2022-10-31T09:26:15;98220.88;;;14.68;100.00
18795;BME280;29610;49.022;12.114;2022-10-31T09:28:54;98214.06;;;14.74;100.00
18795;BME280;29610;49.022;12.114;2022-10-31T09:31:23;98214.97;;;14.78;100.00
18795;BME280;29610;49.022;12.114;2022-10-31T09:34:02;98211.78;;;14.76;100.00
18795;BME280;29610;49.022;12.114;2022-10-31T09:36:53;98213.22;;;14.94;100.00
18795;BME280;29610;49.022;12.114;2022-10-31T09:39:24;98210.72;;;15.01;100.00
18795;BME280;29610;49.022;12.114;2022-10-31T09:42:32;98205.97;;;14.77;100.00
18795;BME280;29610;49.022;12.114;2022-10-31T09:45:26;98204.63;;;15.16;100.00
18795;BME280;29610;49.022;12.114;2022-10-31T09:48:20;98203.50;;;15.17;100.00
18795;BME280;29610;49.022;12.114;2022-10-31T09:51:23;98204.25;;;15.50;100.00
18795;BME280;29610;49.022;12.114;2022-10-31T09:54:25;98207.25;;;15.81;100.00
18795;BME280;29610;49.022;12.114;2022-10-31T09:56:56;98202.56;;;15.93;100.00
18795;BME280;29610;49.022;12.114;2022-10-31T09:59:32;98198.69;;;15.94;100.00
18795;BME280;29610;49.022;12.114;2022-10-31T10:02:10;98200.50;;;15.78;100.00
18795;BME280;29610;49.022;12.114;2022-10-31T10:04:49;98203.94;;;15.99;100.00
18795;BME280;29610;49.022;12.114;2022-10-31T10:07:32;98200.72;;;16.09;100.00
18795;BME280;29610;49.022;12.114;2022-10-31T10:10:31;98200.63;;;16.06;100.00
18795;BME280;29610;49.022;12.114;2022-10-31T10:13:40;98200.72;;;15.97;100.00
18795;BME280;29610;49.022;12.114;2022-10-31T10:16:28;98193.22;;;15.82;100.00
18795;BME280;29610;49.022;12.114;2022-10-31T10:19:16;98190.19;;;16.11;100.00
18795;BME280;29610;49.022;12.114;2022-10-31T10:21:52;98181.84;;;16.20;100.00
18795;BME280;29610;49.022;12.114;2022-10-31T10:24:47;98184.81;;;16.15;100.00
18795;BME280;29610;49.022;12.114;2022-10-31T10:27:31;98182.63;;;16.33;100.00
18795;BME280;29610;49.022;12.114;2022-10-31T10:30:11;98183.53;;;16.37;100.00
18795;BME280;29610;49.022;12.114;2022-10-31T10:32:46;98187.81;;;16.22;100.00
18795;BME280;29610;49.022;12.114;2022-10-31T10:35:29;98178.06;;;16.25;100.00
18795;BME280;29610;49.022;12.114;2022-10-31T10:38:13;98171.84;;;16.52;100.00
18795;BME280;29610;49.022;12.114;2022-10-31T10:40:44;98167.69;;;16.70;100.00
18795;BME280;29610;49.022;12.114;2022-10-31T10:43:23;98174.66;;;16.95;100.00
18795;BME280;29610;49.022;12.114;2022-10-31T10:46:12;98166.75;;;16.93;100.00
18795;BME280;29610;49.022;12.114;2022-10-31T10:49:12;98160.53;;;17.24;100.00
18795;BME280;29610;49.022;12.114;2022-10-31T10:51:47;98162.00;;;17.06;100.00
18795;BME280;29610;49.022;12.114;2022-10-31T10:54:54;98153.88;;;17.09;100.00
18795;BME280;29610;49.022;12.114;2022-10-31T10:57:54;98154.28;;;16.96;100.00
18795;BME280;29610;49.022;12.114;2022-10-31T11:00:27;98149.91;;;17.22;100.00
18795;BME280;29610;49.022;12.114;2022-10-31T11:02:58;98147.97;;;17.23;100.00
18795;BME280;29610;49.022;12.114;2022-10-31T11:05:36;98141.41;;;17.27;100.00
18795;BME280;29610;49.022;12.114;2022-10-31T11:08:06;98144.91;;;17.12;100.00
18795;BME280;29610;49.022;12.114;2022-10-31T11:10:35;98138.28;;;17.29;100.00
18795;BME280;29610;49.022;12.114;2022-10-31T11:13:21;98138.03;;;17.34;100.00
18795;BME280;29610;49.022;12.114;2022-10-31T11:15:57;98131.91;;;17.25;100.00
18795;BME280;29610;49.022;12.114;2022-10-31T11:18:29;98133.66;;;17.33;100.00
18795;BME280;29610;49.022;12.114;2022-10-31T11:21:01;98125.06;;;17.34;100.00
18795;BME280;29610;49.022;12.114;2022-10-31T11:23:32;98119.16;;;17.64;100.00
18795;BME280;29610;49.022;12.114;2022-10-31T11:26:04;98123.94;;;17.67;100.00
18795;BME280;29610;49.022;12.114;2022-10-31T11:28:34;98105.69;;;17.74;100.00
18795;BME280;29610;49.022;12.114;2022-10-31T11:31:07;98109.59;;;17.92;100.00
18795;BME280;29610;49.022;12.114;2022-10-31T11:33:46;98104.13;;;18.11;100.00
18795;BME280;29610;49.022;12.114;2022-10-31T11:36:21;98104.94;;;18.12;100.00
18795;BME280;29610;49.022;12.114;2022-10-31T11:38:52;98100.47;;;18.23;100.00
18795;BME280;29610;49.022;12.114;2022-10-31T11:41:27;98092.78;;;18.13;100.00
18795;BME280;29610;49.022;12.114;2022-10-31T11:44:00;98082.63;;;17.32;100.00
18795;BME280;29610;49.022;12.114;2022-10-31T11:46:34;98097.03;;;17.91;100.00
18795;BME280;29610;49.022;12.114;2022-10-31T11:49:13;98083.78;;;17.62;100.00
18795;BME280;29610;49.022;12.114;2022-10-31T11:51:49;98081.31;;;17.73;100.00
18795;BME280;29610;49.022;12.114;2022-10-31T11:54:24;98077.38;;;17.74;100.00
18795;BME280;29610;49.022;12.114;2022-10-31T11:56:55;98081.47;;;17.99;100.00
18795;BME280;29610;49.022;12.114;2022-10-31T11:59:28;98074.88;;;18.03;100.00
18795;BME280;29610;49.022;12.114;2022-10-31T12:02:00;98077.78;;;17.91;100.00
18795;BME280;29610;49.022;12.114;2022-10-31T12:04:37;98072.34;;;17.76;100.00
18795;BME280;29610;49.022;12.114;2022-10-31T12:07:08;98078.88;;;17.87;100.00
18795;BME280;29610;49.022;12.114;2022-10-31T12:09:38;98061.16;;;18.22;100.00
18795;BME280;29610;49.022;12.114;2022-10-31T12:12:39;98063.97;;;18.07;100.00
18795;BME280;29610;49.022;12.114;2022-10-31T12:15:31;98057.91;;;18.36;100.00
18795;BME280;29610;49.022;12.114;2022-10-31T12:18:28;98047.56;;;18.48;100.00
18795;BME280;29610;49.022;12.114;2022-10-31T12:21:26;98047.47;;;18.64;100.00
18795;BME280;29610;49.022;12.114;2022-10-31T12:24:11;98044.81;;;18.48;100.00
18795;BME280;29610;49.022;12.114;2022-10-31T12:26:53;98034.28;;;18.73;100.00
18795;BME280;29610;49.022;12.114;2022-10-31T12:29:44;98038.47;;;18.89;100.00
18795;BME280;29610;49.022;12.114;2022-10-31T12:32:32;98036.31;;;18.99;100.00
18795;BME280;29610;49.022;12.114;2022-10-31T12:35:24;98027.97;;;18.72;100.00
18795;BME280;29610;49.022;12.114;2022-10-31T12:41:34;98026.28;;;18.45;100.00
18795;BME280;29610;49.022;12.114;2022-10-31T12:44:28;98027.28;;;18.37;100.00
18795;BME280;29610;49.022;12.114;2022-10-31T12:50:32;98008.88;;;18.22;100.00
18795;BME280;29610;49.022;12.114;2022-10-31T12:53:22;98014.69;;;18.17;100.00
18795;BME280;29610;49.022;12.114;2022-10-31T12:56:07;98008.00;;;18.37;100.00
18795;BME280;29610;49.022;12.114;2022-10-31T12:58:46;98001.88;;;18.44;100.00
18795;BME280;29610;49.022;12.114;2022-10-31T13:01:20;97992.66;;;18.55;100.00
18795;BME280;29610;49.022;12.114;2022-10-31T13:04:01;97998.25;;;18.40;100.00
18795;BME280;29610;49.022;12.114;2022-10-31T13:06:39;97990.44;;;18.42;100.00
18795;BME280;29610;49.022;12.114;2022-10-31T13:09:17;97979.69;;;18.37;100.00
18795;BME280;29610;49.022;12.114;2022-10-31T13:11:56;97985.84;;;18.49;100.00
18795;BME280;29610;49.022;12.114;2022-10-31T13:14:32;97979.78;;;18.40;100.00
18795;BME280;29610;49.022;12.114;2022-10-31T13:17:04;97978.31;;;18.46;100.00
18795;BME280;29610;49.022;12.114;2022-10-31T13:19:38;97983.34;;;18.41;100.00
18795;BME280;29610;49.022;12.114;2022-10-31T13:22:15;97982.81;;;18.35;100.00
18795;BME280;29610;49.022;12.114;2022-10-31T13:24:53;97969.72;;;18.29;100.00
18795;BME280;29610;49.022;12.114;2022-10-31T13:27:28;97971.53;;;18.21;100.00
18795;BME280;29610;49.022;12.114;2022-10-31T13:30:04;97975.16;;;18.06;100.00
18795;BME280;29610;49.022;12.114;2022-10-31T13:32:42;97980.63;;;18.03;100.00
18795;BME280;29610;49.022;12.114;2022-10-31T13:35:21;97973.66;;;17.90;100.00
18795;BME280;29610;49.022;12.114;2022-10-31T13:38:08;97976.41;;;17.71;100.00
18795;BME280;29610;49.022;12.114;2022-10-31T13:40:47;97965.84;;;17.73;100.00
18795;BME280;29610;49.022;12.114;2022-10-31T13:43:31;97972.13;;;17.73;100.00